This is the latest recevied weather packets stored in our database for station/object N4JTC. If no packets are shown the sender has not sent any weather packets the latest 10 day(s).
| Time | Temp. | Humidity | Pressure | Rain* | Wind** | Luminosity | Snow |
|---|---|---|---|---|---|---|---|
| 1778104803 | 27.78° C | 72% | 1015.4 hPa | 0 mm | - | 376 W/m² | - |
| 1778104503 | 27.78° C | 73% | 1015.6 hPa | 0 mm | - | 397 W/m² | - |
| 1778104203 | 27.78° C | 72% | 1015.4 hPa | 0 mm | - | 419 W/m² | - |
| 1778103903 | 28.33° C | 70% | 1015.5 hPa | 0 mm | - | 430 W/m² | - |
| 1778103603 | 28.33° C | 72% | 1015.8 hPa | 0 mm | - | 415 W/m² | - |
| 1778103303 | 28.33° C | 71% | 1015.8 hPa | 0 mm | - | 337 W/m² | - |
| 1778103003 | 28.33° C | 70% | 1015.8 hPa | 0 mm | - | 332 W/m² | - |
| 1778102703 | 28.33° C | 70% | 1015.7 hPa | 0 mm | - | 391 W/m² | - |
| 1778102403 | 27.78° C | 70% | 1015.8 hPa | 0 mm | - | 514 W/m² | - |
| 1778102102 | 28.33° C | 68% | 1015.6 hPa | 0 mm | - | 521 W/m² | - |
| 1778101803 | 28.33° C | 68% | 1015.7 hPa | 0 mm | - | 528 W/m² | - |
| 1778101503 | 28.89° C | 67% | 1015.7 hPa | 0 mm | - | 531 W/m² | - |
| 1778101203 | 27.78° C | 71% | 1016.2 hPa | 0 mm | - | 508 W/m² | - |
| 1778100903 | 27.78° C | 72% | 1016 hPa | 0 mm | - | 554 W/m² | - |
| 1778100303 | 28.33° C | 71% | 1015.9 hPa | 0 mm | - | 579 W/m² | - |
| 1778100003 | 27.78° C | 71% | 1016 hPa | 0 mm | - | 563 W/m² | - |
| 1778099703 | 28.33° C | 72% | 1016.1 hPa | 0 mm | - | 561 W/m² | - |
| 1778099403 | 28.33° C | 71% | 1015.9 hPa | 0 mm | - | 607 W/m² | - |
| 1778099103 | 28.33° C | 71% | 1016.4 hPa | 0 mm | - | 610 W/m² | - |
| 1778098803 | 28.33° C | 72% | 1016.5 hPa | 0 mm | - | 644 W/m² | - |
| 1778098502 | 28.33° C | 71% | 1016.5 hPa | 0 mm | - | 680 W/m² | - |
| 1778097903 | 28.33° C | 72% | 1016.6 hPa | 0 mm | - | 242 W/m² | - |
| 1778097603 | 28.33° C | 73% | 1017.1 hPa | 0 mm | - | 768 W/m² | - |
| 1778097303 | 28.33° C | 72% | 1017.1 hPa | 0 mm | - | 730 W/m² | - |
| 1778096703 | 27.78° C | 74% | 1017.1 hPa | 0 mm | - | 771 W/m² | - |
* Rain latest hour (hover to see other rain measurements)
** Current wind speed in m/s (hover to see current wind gust speed)